Time;durP1;ratioP1;P1;durP2;ratioP2;P2;SDS_P1;SDS_P2;PMS_P1;PMS_P2;Temp;Humidity;BMP_temperature;BMP_pressure;BME280_temperature;BME280_humidity;BME280_pressure;Samples;Min_cycle;Max_cycle;Signal;HPM_P1;HPM_P2
2022/12/05 00:05:12;;;;;;;37.63;24.93;;;2.90;99.90;;;;;;2613736;54;20179;-76
2022/12/05 00:10:59;;;;;;;29.63;24.63;;;2.90;99.90;;;;;;2613968;54;20422;-73
2022/12/05 00:16:47;;;;;;;38.77;25.27;;;2.90;99.90;;;;;;2613569;54;20635;-74
2022/12/05 00:22:37;;;;;;;31.17;22.50;;;2.90;99.90;;;;;;2613820;54;20150;-75
2022/12/05 00:28:24;;;;;;;32.87;22.90;;;2.90;99.90;;;;;;2612996;54;20549;-74
2022/12/05 00:34:12;;;;;;;38.33;25.10;;;3.00;99.90;;;;;;2613929;47;20210;-74
2022/12/05 00:40:00;;;;;;;31.73;23.60;;;2.90;99.90;;;;;;2613880;47;20415;-74
2022/12/05 00:45:48;;;;;;;43.27;24.97;;;3.00;99.90;;;;;;2614217;54;20158;-74
2022/12/05 00:51:39;;;;;;;34.77;24.00;;;2.90;99.90;;;;;;2613880;54;20138;-73
2022/12/05 00:57:26;;;;;;;32.70;23.07;;;2.90;99.90;;;;;;2615071;54;20383;-73
2022/12/05 01:03:14;;;;;;;33.70;25.10;;;2.90;99.90;;;;;;2612901;54;20148;-73
2022/12/05 01:09:03;;;;;;;36.37;23.23;;;2.90;99.90;;;;;;2614015;54;20147;-73
2022/12/05 01:14:51;;;;;;;32.60;25.50;;;2.90;99.90;;;;;;2614763;54;20450;-73
2022/12/05 01:20:40;;;;;;;32.37;24.00;;;3.00;99.90;;;;;;2614095;54;20163;-71
2022/12/05 01:30:42;;;;;;;35.50;25.57;;;2.90;99.90;;;;;;2613997;54;20407;-75
2022/12/05 01:36:30;;;;;;;43.53;26.53;;;2.90;99.90;;;;;;2613630;54;20407;-72
2022/12/05 01:42:17;;;;;;;37.00;24.80;;;2.90;99.90;;;;;;2613998;54;20134;-72
2022/12/05 01:54:41;;;;;;;38.70;25.60;;;2.90;99.90;;;;;;2614502;54;20415;-73
2022/12/05 02:00:28;;;;;;;35.20;25.90;;;2.90;99.90;;;;;;2613456;54;20395;-73
2022/12/05 02:06:16;;;;;;;38.90;25.33;;;2.90;99.90;;;;;;2613897;54;20174;-73
2022/12/05 02:12:04;;;;;;;38.10;27.43;;;3.00;99.90;;;;;;2614218;54;20371;-73
2022/12/05 02:18:07;;;;;;;37.10;25.50;;;2.90;99.90;;;;;;2615518;54;20126;-71
2022/12/05 02:24:03;;;;;;;41.17;25.03;;;2.90;99.90;;;;;;2614750;54;20463;-72
2022/12/05 02:30:05;;;;;;;41.00;25.10;;;3.00;99.90;;;;;;2614902;54;20399;-72
2022/12/05 02:35:58;;;;;;;38.43;26.00;;;2.90;99.90;;;;;;2614820;54;20379;-72
2022/12/05 02:41:55;;;;;;;37.57;25.63;;;2.90;99.90;;;;;;2614597;54;20391;-73
2022/12/05 02:47:47;;;;;;;38.73;25.50;;;2.90;99.90;;;;;;2615043;54;20399;-73
2022/12/05 02:53:37;;;;;;;47.30;27.27;;;2.90;99.90;;;;;;2614322;54;20470;-73
2022/12/05 02:59:25;;;;;;;44.57;28.90;;;2.90;99.90;;;;;;2615359;31;20830;-76
2022/12/05 03:05:24;;;;;;;52.60;34.57;;;2.90;99.90;;;;;;2613525;54;20181;-73
2022/12/05 03:11:12;;;;;;;48.23;29.27;;;2.90;99.90;;;;;;2614832;54;20528;-72
2022/12/05 03:17:03;;;;;;;50.17;29.93;;;2.90;99.90;;;;;;2613581;39;20734;-73
2022/12/05 03:27:25;;;;;;;52.30;30.07;;;3.00;99.90;;;;;;2612305;54;20987;-72
2022/12/05 03:33:16;;;;;;;42.63;27.50;;;2.90;99.90;;;;;;2612957;54;20419;-72
2022/12/05 03:52:08;;;;;;;42.57;26.63;;;2.90;99.90;;;;;;2613343;54;20404;-77
2022/12/05 03:58:04;;;;;;;49.60;30.53;;;2.80;99.90;;;;;;2613105;39;20823;-76
2022/12/05 04:03:56;;;;;;;43.37;26.70;;;2.80;99.90;;;;;;2614888;54;20940;-77
2022/12/05 04:22:40;;;;;;;44.37;26.37;;;2.80;99.90;;;;;;2614276;54;20599;-76
2022/12/05 04:42:21;;;;;;;39.37;26.10;;;2.80;99.90;;;;;;2614313;46;21493;-79
2022/12/05 04:48:13;;;;;;;42.50;27.40;;;2.70;99.90;;;;;;2614453;39;20803;-78
2022/12/05 05:00:14;;;;;;;39.93;26.23;;;2.70;99.90;;;;;;2613438;54;20963;-76
2022/12/05 05:06:03;;;;;;;49.00;25.00;;;2.70;99.90;;;;;;2612566;54;20395;-78
2022/12/05 05:11:51;;;;;;;46.27;26.00;;;2.70;99.90;;;;;;2614278;54;20399;-78
2022/12/05 05:17:38;;;;;;;33.27;23.97;;;2.70;99.90;;;;;;2615476;54;20145;-78
2022/12/05 05:23:26;;;;;;;36.67;23.23;;;2.60;99.90;;;;;;2614007;54;20159;-77
2022/12/05 05:32:36;;;;;;;45.50;25.63;;;2.60;99.90;;;;;;2614205;54;20439;-77
2022/12/05 05:38:24;;;;;;;42.43;25.97;;;2.60;99.90;;;;;;2616036;54;20170;-78
2022/12/05 05:44:11;;;;;;;37.27;23.67;;;2.60;99.90;;;;;;2615333;54;20227;-76
2022/12/05 05:49:59;;;;;;;40.20;26.13;;;2.60;99.90;;;;;;2615316;54;20524;-79
2022/12/05 05:55:46;;;;;;;46.47;27.17;;;2.50;99.90;;;;;;2615680;54;20167;-77
2022/12/05 06:01:34;;;;;;;41.83;26.17;;;2.50;99.90;;;;;;2613669;54;20131;-77
2022/12/05 06:07:22;;;;;;;44.23;25.93;;;2.50;99.90;;;;;;2614615;54;20243;-79
2022/12/05 06:13:09;;;;;;;43.80;25.73;;;2.50;99.90;;;;;;2614455;54;20234;-76
2022/12/05 06:18:58;;;;;;;46.50;26.90;;;2.60;99.90;;;;;;2614780;54;20139;-77
2022/12/05 06:24:45;;;;;;;42.73;26.70;;;2.50;99.90;;;;;;2613320;54;20374;-77
2022/12/05 06:28:00;;;;;;;43.20;25.67;;;2.50;99.90;;;;;;2612025;47;20535;-75
2022/12/05 06:30:25;;;;;;;47.50;29.70;;;2.60;99.90;;;;;;2612813;54;20270;-76
2022/12/05 06:36:16;;;;;;;42.40;25.97;;;2.60;99.90;;;;;;2613650;54;20656;-75
2022/12/05 06:42:04;;;;;;;37.30;23.13;;;2.50;99.90;;;;;;2613961;54;20403;-75
2022/12/05 06:47:52;;;;;;;40.67;24.90;;;2.50;99.90;;;;;;2613019;54;20179;-77
2022/12/05 06:50:18;;;;;;;34.17;24.20;;;2.50;99.90;;;;;;2606510;54;20419;-77
2022/12/05 06:52:45;;;;;;;36.77;22.20;;;2.50;99.90;;;;;;2610315;54;21788;-78
2022/12/05 06:58:33;;;;;;;41.23;25.67;;;2.50;99.90;;;;;;2613045;54;20480;-75
2022/12/05 07:04:25;;;;;;;36.47;21.97;;;2.50;99.90;;;;;;2614216;54;20199;-76
2022/12/05 07:10:12;;;;;;;38.40;23.97;;;2.50;99.90;;;;;;2613197;54;20398;-77
2022/12/05 07:16:01;;;;;;;33.87;22.83;;;2.50;99.90;;;;;;2614486;54;20178;-77
2022/12/05 07:21:48;;;;;;;32.40;22.00;;;2.50;99.90;;;;;;2613416;54;20398;-76
2022/12/05 07:27:36;;;;;;;37.30;22.10;;;2.40;99.90;;;;;;2614453;54;20723;-75
2022/12/05 07:33:23;;;;;;;33.60;22.63;;;2.20;99.90;;;;;;2614010;54;20213;-76
2022/12/05 07:36:48;;;;;;;34.50;22.53;;;2.20;99.90;;;;;;2613401;47;20948;-74
2022/12/05 07:42:36;;;;;;;31.33;18.60;;;2.10;99.90;;;;;;2613669;39;20894;-76
2022/12/05 07:48:23;;;;;;;31.80;21.47;;;2.00;99.90;;;;;;2612689;54;20407;-74
2022/12/05 07:54:11;;;;;;;32.30;20.30;;;2.00;99.90;;;;;;2612336;54;20138;-75
2022/12/05 08:00:03;;;;;;;29.43;19.03;;;2.00;99.90;;;;;;2614304;54;20170;-74
2022/12/05 08:05:50;;;;;;;25.80;18.90;;;2.00;99.90;;;;;;2612457;39;20801;-76
2022/12/05 08:11:38;;;;;;;23.27;17.00;;;2.00;99.90;;;;;;2614033;54;20138;-76
2022/12/05 08:17:29;;;;;;;24.53;18.07;;;2.00;99.90;;;;;;2613880;54;20153;-75
2022/12/05 08:23:17;;;;;;;24.80;18.40;;;1.90;99.90;;;;;;2612174;54;20415;-77
2022/12/05 08:29:10;;;;;;;25.03;19.03;;;1.90;99.90;;;;;;2614435;54;20223;-75
2022/12/05 08:32:15;;;;;;;30.57;19.30;;;2.00;99.90;;;;;;2612440;54;20403;-76
2022/12/05 08:34:41;;;;;;;23.97;17.30;;;1.90;99.90;;;;;;2614185;47;20430;-76
2022/12/05 08:40:30;;;;;;;24.53;18.20;;;2.10;99.90;;;;;;2614592;54;20117;-76
2022/12/05 08:46:17;;;;;;;27.60;18.50;;;2.00;99.90;;;;;;2613778;54;20366;-75
2022/12/05 08:52:05;;;;;;;29.43;18.43;;;1.90;99.90;;;;;;2613490;54;20207;-76
2022/12/05 08:54:30;;;;;;;27.23;20.17;;;1.80;99.90;;;;;;2612377;47;21015;-76
2022/12/05 08:56:56;;;;;;;24.90;18.93;;;1.80;99.90;;;;;;2613630;46;20174;-77
2022/12/05 09:02:44;;;;;;;27.53;20.30;;;1.80;99.90;;;;;;2613038;54;20721;-75
2022/12/05 09:08:31;;;;;;;30.07;19.63;;;1.80;99.90;;;;;;2614788;54;20130;-77
2022/12/05 09:14:19;;;;;;;29.50;19.03;;;1.80;99.90;;;;;;2613816;54;20143;-75
2022/12/05 09:20:07;;;;;;;30.53;21.37;;;1.80;99.90;;;;;;2614644;54;20134;-76
2022/12/05 09:23:28;;;;;;;26.93;19.63;;;1.90;99.90;;;;;;2613536;54;20394;-75
2022/12/05 09:26:00;;;;;;;24.10;19.20;;;1.90;99.90;;;;;;2613620;54;20450;-75
2022/12/05 09:29:20;;;;;;;33.37;21.67;;;1.90;99.90;;;;;;2613212;39;20777;-78
2022/12/05 09:31:47;;;;;;;32.53;22.00;;;2.00;99.90;;;;;;2614090;54;20432;-77
2022/12/05 09:37:35;;;;;;;29.30;21.07;;;2.00;99.90;;;;;;2614665;54;20927;-73
2022/12/05 09:50:40;;;;;;;33.30;21.90;;;2.00;99.90;;;;;;2612693;54;20379;-76
2022/12/05 09:56:29;;;;;;;33.43;21.70;;;2.10;99.90;;;;;;2615034;54;20427;-75
2022/12/05 09:58:57;;;;;;;36.20;22.57;;;2.00;99.90;;;;;;2612547;54;20968;-76
2022/12/05 10:01:40;;;;;;;32.20;21.03;;;2.00;99.90;;;;;;2613836;47;20387;-75
2022/12/05 10:11:36;;;;;;;29.47;20.03;;;2.10;99.90;;;;;;2613448;54;20408;-77
2022/12/05 10:37:29;;;;;;;29.43;21.40;;;2.30;99.90;;;;;;2613630;54;20953;-76
2022/12/05 10:49:31;;;;;;;30.30;20.33;;;2.20;99.90;;;;;;2612540;39;20801;-75
2022/12/05 10:55:18;;;;;;;32.63;22.30;;;2.20;99.90;;;;;;2612435;54;20402;-73
2022/12/05 11:01:14;;;;;;;31.50;22.47;;;2.10;99.90;;;;;;2610737;54;20512;-76
2022/12/05 11:04:39;;;;;;;33.23;21.53;;;2.00;99.90;;;;;;2611465;39;20785;-76
2022/12/05 11:10:33;;;;;;;34.27;21.90;;;1.90;99.90;;;;;;2611496;54;20437;-75
2022/12/05 11:16:28;;;;;;;44.43;24.43;;;2.10;99.90;;;;;;2613750;54;20378;-75
2022/12/05 11:22:16;;;;;;;37.43;22.67;;;1.90;99.90;;;;;;2614435;54;20391;-76
2022/12/05 11:28:16;;;;;;;34.13;22.87;;;1.90;99.90;;;;;;2613066;54;20495;-74
2022/12/05 11:40:54;;;;;;;34.77;21.53;;;1.90;99.90;;;;;;2613857;54;20443;-77
2022/12/05 11:43:48;;;;;;;35.53;21.70;;;2.00;99.90;;;;;;2610374;46;20454;-76
2022/12/05 11:49:35;;;;;;;31.37;22.33;;;1.80;99.90;;;;;;2614874;54;20378;-76
2022/12/05 12:02:11;;;;;;;27.60;19.70;;;1.90;99.90;;;;;;2613810;54;20405;-76
2022/12/05 12:08:18;;;;;;;31.27;20.97;;;1.80;99.90;;;;;;2615345;54;20373;-77
2022/12/05 12:20:57;;;;;;;32.23;20.43;;;1.80;99.90;;;;;;2614953;54;20394;-75
2022/12/05 12:37:24;;;;;;;29.67;21.30;;;1.70;99.90;;;;;;2614090;54;21280;-75
2022/12/05 12:49:55;;;;;;;22.73;17.10;;;1.60;99.90;;;;;;2614182;54;20490;-77
2022/12/05 12:56:07;;;;;;;27.53;19.57;;;1.40;99.90;;;;;;2615909;54;20411;-77
2022/12/05 13:11:22;;;;;;;29.57;20.77;;;1.50;99.90;;;;;;2614854;54;20450;-76
2022/12/05 13:13:52;;;;;;;32.33;22.63;;;1.50;99.90;;;;;;2614742;39;20847;-76
2022/12/05 13:25:58;;;;;;;28.53;20.13;;;1.40;99.90;;;;;;2614614;54;20407;-75
2022/12/05 13:31:47;;;;;;;30.37;22.03;;;1.30;99.90;;;;;;2615295;54;20393;-76
2022/12/05 13:43:52;;;;;;;33.60;23.50;;;1.20;99.90;;;;;;2615812;54;20430;-77
2022/12/05 13:56:01;;;;;;;51.97;28.97;;;1.10;99.90;;;;;;2615584;39;20824;-75
2022/12/05 14:01:49;;;;;;;34.70;25.80;;;1.10;99.90;;;;;;2614902;47;20406;-74
2022/12/05 14:07:46;;;;;;;36.87;24.23;;;1.10;99.90;;;;;;2615372;54;20150;-76
2022/12/05 14:13:40;;;;;;;29.97;21.30;;;1.10;99.90;;;;;;2615149;54;20430;-76
2022/12/05 14:26:38;;;;;;;33.97;23.27;;;1.10;99.90;;;;;;2615999;39;21031;-76
2022/12/05 14:32:34;;;;;;;38.63;24.13;;;1.10;99.90;;;;;;2615150;54;20439;-77
2022/12/05 14:38:30;;;;;;;32.80;23.70;;;1.10;99.90;;;;;;2614966;54;20411;-78
2022/12/05 14:44:19;;;;;;;32.80;22.50;;;1.10;99.90;;;;;;2615175;54;20403;-76
2022/12/05 15:01:04;;;;;;;30.10;22.97;;;1.20;99.90;;;;;;2612515;54;20401;-77
2022/12/05 15:06:56;;;;;;;45.67;27.47;;;1.10;99.90;;;;;;2612509;54;20380;-75
2022/12/05 15:12:43;;;;;;;36.67;25.20;;;1.10;99.90;;;;;;2611987;54;20395;-77
2022/12/05 15:24:44;;;;;;;42.27;28.70;;;1.20;99.90;;;;;;2612189;54;20494;-77
2022/12/05 15:30:35;;;;;;;43.40;29.10;;;1.20;99.90;;;;;;2612949;54;20126;-76
2022/12/05 15:33:22;;;;;;;31.63;23.37;;;1.10;99.90;;;;;;2612595;47;20547;-77
2022/12/05 15:35:50;;;;;;;36.07;22.77;;;1.20;99.90;;;;;;2614433;54;20374;-77
2022/12/05 15:41:38;;;;;;;26.57;20.50;;;1.20;99.90;;;;;;2613478;54;20920;-76
2022/12/05 15:47:26;;;;;;;28.60;20.40;;;1.20;99.90;;;;;;2613701;54;20138;-76
2022/12/05 15:53:17;;;;;;;27.67;18.83;;;1.10;99.90;;;;;;2614882;54;20395;-74
2022/12/05 15:56:04;;;;;;;28.80;18.80;;;1.10;99.90;;;;;;2613318;54;20407;-74
2022/12/05 16:04:49;;;;;;;27.23;17.90;;;1.10;99.90;;;;;;2614591;54;20410;-74
2022/12/05 16:10:37;;;;;;;25.93;17.63;;;1.20;99.90;;;;;;2614689;54;20393;-75
2022/12/05 16:16:30;;;;;;;29.90;21.70;;;1.20;99.90;;;;;;2611812;54;20938;-74
2022/12/05 16:22:22;;;;;;;31.63;21.87;;;1.10;99.90;;;;;;2613972;54;20375;-74
2022/12/05 16:28:17;;;;;;;45.30;24.13;;;1.20;99.90;;;;;;2612499;39;20781;-75
2022/12/05 16:40:22;;;;;;;32.10;24.80;;;1.00;99.90;;;;;;2614655;54;20379;-73
2022/12/05 16:46:09;;;;;;;42.83;28.10;;;1.00;99.90;;;;;;2612702;54;20378;-72
2022/12/05 16:52:02;;;;;;;36.03;27.00;;;1.20;99.90;;;;;;2613467;46;20154;-74
2022/12/05 16:54:28;;;;;;;68.80;40.63;;;1.10;99.90;;;;;;2612427;54;20420;-73
2022/12/05 16:56:59;;;;;;;71.03;37.20;;;1.10;99.90;;;;;;2613239;54;20455;-74
2022/12/05 17:02:47;;;;;;;61.30;33.77;;;1.20;99.90;;;;;;2614088;54;20385;-75
2022/12/05 17:08:35;;;;;;;52.47;31.00;;;1.20;99.90;;;;;;2612578;54;20219;-72
2022/12/05 17:14:22;;;;;;;33.93;25.73;;;1.20;99.90;;;;;;2612752;54;20153;-73
2022/12/05 17:20:13;;;;;;;36.20;25.53;;;1.20;99.90;;;;;;2613702;54;20178;-74
2022/12/05 17:26:04;;;;;;;41.50;22.93;;;1.30;99.90;;;;;;2613274;54;20398;-73
2022/12/05 17:31:52;;;;;;;31.70;23.20;;;1.30;99.90;;;;;;2613725;54;20524;-74
2022/12/05 17:37:39;;;;;;;24.07;19.00;;;1.40;99.90;;;;;;2614641;54;20258;-73
2022/12/05 17:40:06;;;;;;;34.93;21.87;;;1.40;99.90;;;;;;2609467;46;20422;-73
2022/12/05 17:42:31;;;;;;;34.10;21.27;;;1.30;99.90;;;;;;2612743;47;20174;-72
2022/12/05 17:48:20;;;;;;;31.07;21.57;;;1.30;99.90;;;;;;2614645;54;20154;-72
2022/12/05 17:54:08;;;;;;;28.17;20.20;;;1.20;99.90;;;;;;2614024;54;20407;-72
2022/12/05 17:59:56;;;;;;;24.77;19.13;;;1.30;99.90;;;;;;2615094;39;20867;-74
2022/12/05 18:05:44;;;;;;;33.13;27.00;;;1.30;99.90;;;;;;2612964;54;20129;-73
2022/12/05 18:11:32;;;;;;;25.17;19.93;;;1.30;99.90;;;;;;2613284;54;20452;-73
2022/12/05 18:17:19;;;;;;;37.70;29.80;;;1.40;99.90;;;;;;2614628;54;20168;-71
2022/12/05 18:23:07;;;;;;;22.47;16.70;;;1.30;99.90;;;;;;2614679;46;20154;-72
2022/12/05 18:28:57;;;;;;;23.73;20.50;;;1.30;99.90;;;;;;2616006;39;20584;-72
2022/12/05 18:38:13;;;;;;;21.07;16.00;;;1.40;99.90;;;;;;2615281;54;20431;-72
2022/12/05 18:44:00;;;;;;;18.90;14.97;;;1.40;99.90;;;;;;2615560;46;20450;-72
2022/12/05 18:49:48;;;;;;;25.07;17.63;;;1.40;99.90;;;;;;2615734;54;20221;-72
2022/12/05 18:55:35;;;;;;;24.23;18.40;;;1.50;99.90;;;;;;2614715;54;20178;-73
2022/12/05 19:01:24;;;;;;;27.13;20.57;;;1.50;99.90;;;;;;2615366;54;20516;-72
2022/12/05 19:07:14;;;;;;;23.93;19.40;;;1.50;99.90;;;;;;2614774;54;20363;-73
2022/12/05 19:13:02;;;;;;;25.40;18.90;;;1.40;99.90;;;;;;2614623;54;20410;-72
2022/12/05 19:18:57;;;;;;;26.60;19.53;;;1.50;99.90;;;;;;2614795;54;20126;-71
2022/12/05 19:25:08;;;;;;;25.53;19.47;;;1.40;99.90;;;;;;2612808;54;20395;-72
2022/12/05 19:31:16;;;;;;;23.67;16.87;;;1.40;99.90;;;;;;2613953;54;20362;-72
2022/12/05 19:40:25;;;;;;;22.27;16.23;;;1.50;99.90;;;;;;2613203;54;20515;-72
2022/12/05 19:46:14;;;;;;;24.20;19.53;;;1.50;99.90;;;;;;2613387;54;20122;-75
2022/12/05 19:52:01;;;;;;;26.13;20.53;;;1.60;99.90;;;;;;2613446;54;20432;-72
2022/12/05 19:57:48;;;;;;;34.00;26.10;;;1.40;99.90;;;;;;2614144;54;20138;-73
2022/12/05 20:03:36;;;;;;;23.67;18.03;;;1.50;99.90;;;;;;2614406;54;20150;-74
2022/12/05 20:09:24;;;;;;;27.97;19.13;;;1.50;99.90;;;;;;2614078;54;20539;-74
2022/12/05 20:15:11;;;;;;;34.57;24.93;;;1.60;99.90;;;;;;2613614;39;20506;-73
2022/12/05 20:21:00;;;;;;;66.87;45.67;;;1.50;99.90;;;;;;2614665;54;20238;-72
2022/12/05 20:26:48;;;;;;;61.77;38.70;;;1.50;99.90;;;;;;2614759;54;20959;-72
2022/12/05 20:32:36;;;;;;;31.87;23.90;;;1.60;99.90;;;;;;2615155;54;20671;-72
2022/12/05 20:35:39;;;;;;;42.73;25.30;;;1.50;99.90;;;;;;2614813;54;20423;-73
2022/12/05 20:38:05;;;;;;;26.87;18.23;;;1.50;99.90;;;;;;2613815;47;20157;-72
2022/12/05 20:43:56;;;;;;;29.23;20.70;;;1.50;99.90;;;;;;2614525;54;20130;-73
2022/12/05 20:49:44;;;;;;;19.67;15.40;;;1.60;99.90;;;;;;2614571;54;20387;-73
2022/12/05 20:55:31;;;;;;;27.40;22.43;;;1.50;99.90;;;;;;2614390;54;20155;-73
2022/12/05 21:01:20;;;;;;;24.33;16.67;;;1.50;99.90;;;;;;2614159;54;20134;-75
2022/12/05 21:07:08;;;;;;;23.60;19.70;;;1.50;99.90;;;;;;2614534;39;20780;-73
2022/12/05 21:12:56;;;;;;;23.97;17.50;;;1.50;99.90;;;;;;2614647;54;20181;-72
2022/12/05 21:18:44;;;;;;;28.80;17.80;;;1.50;99.90;;;;;;2614961;54;20122;-73
2022/12/05 21:24:31;;;;;;;24.77;16.90;;;1.50;99.90;;;;;;2614847;54;20382;-73
2022/12/05 21:30:19;;;;;;;22.80;17.97;;;1.50;99.90;;;;;;2616036;54;20126;-73
2022/12/05 21:40:12;;;;;;;29.03;17.50;;;1.60;99.90;;;;;;2615345;54;20554;-73
2022/12/05 21:46:01;;;;;;;32.43;18.60;;;1.50;99.90;;;;;;2614828;54;21094;-73
2022/12/05 21:51:48;;;;;;;28.47;18.77;;;1.50;99.90;;;;;;2615688;54;20166;-72
2022/12/05 21:57:37;;;;;;;22.77;15.53;;;1.50;99.90;;;;;;2615542;54;20242;-70
2022/12/05 22:03:25;;;;;;;23.07;17.30;;;1.50;99.90;;;;;;2613873;54;20419;-74
2022/12/05 22:09:13;;;;;;;24.03;16.70;;;1.50;99.90;;;;;;2614953;54;20387;-73
2022/12/05 22:15:00;;;;;;;23.33;17.20;;;1.60;99.90;;;;;;2615724;54;20130;-72
2022/12/05 22:27:21;;;;;;;22.23;17.03;;;1.60;99.90;;;;;;2613665;54;20415;-73
2022/12/05 22:33:08;;;;;;;22.00;15.60;;;1.60;99.90;;;;;;2614078;39;20832;-72
2022/12/05 22:38:56;;;;;;;26.83;18.20;;;1.70;99.90;;;;;;2614137;54;20126;-73
2022/12/05 22:48:14;;;;;;;25.20;17.40;;;1.80;99.90;;;;;;2614146;54;20449;-73
2022/12/05 22:54:01;;;;;;;27.47;17.90;;;1.80;99.90;;;;;;2613492;54;20384;-74
2022/12/05 22:59:48;;;;;;;31.00;18.90;;;1.90;99.90;;;;;;2614524;46;20165;-73
2022/12/05 23:05:40;;;;;;;29.00;19.43;;;1.90;99.90;;;;;;2615490;54;20631;-74
2022/12/05 23:11:29;;;;;;;35.87;20.77;;;1.90;99.90;;;;;;2615611;39;20737;-74
2022/12/05 23:17:17;;;;;;;33.47;19.53;;;2.00;99.90;;;;;;2615513;54;20374;-73
2022/12/05 23:23:05;;;;;;;34.57;19.97;;;2.00;99.90;;;;;;2615788;54;20142;-73
2022/12/05 23:28:53;;;;;;;38.27;21.70;;;2.00;99.90;;;;;;2615511;54;20134;-75
2022/12/05 23:34:41;;;;;;;35.33;22.00;;;2.00;99.90;;;;;;2615557;54;20404;-75
2022/12/05 23:40:28;;;;;;;38.87;20.73;;;2.10;99.90;;;;;;2616321;39;20645;-75
2022/12/05 23:46:18;;;;;;;36.83;22.03;;;2.10;99.90;;;;;;2615109;54;20281;-76
2022/12/05 23:52:06;;;;;;;40.10;24.07;;;2.10;99.90;;;;;;2614670;54;20376;-73
2022/12/05 23:57:53;;;;;;;36.43;21.97;;;2.10;99.90;;;;;;2614798;54;20130;-74
